sensor_id;sensor_type;location;lat;lon;timestamp;pressure;altitude;pressure_sealevel;temperature;humidity
47330;BME280;33060;50.178;7.570;2022-08-18T00:02:05;96736.81;;;18.92;74.36
47330;BME280;33060;50.178;7.570;2022-08-18T00:04:33;96734.13;;;18.84;74.60
47330;BME280;33060;50.178;7.570;2022-08-18T00:07:21;96735.81;;;18.77;75.90
47330;BME280;33060;50.178;7.570;2022-08-18T00:09:48;96727.94;;;18.67;75.86
47330;BME280;33060;50.178;7.570;2022-08-18T00:14:45;96722.88;;;18.48;75.92
47330;BME280;33060;50.178;7.570;2022-08-18T00:17:12;96728.19;;;18.31;76.56
47330;BME280;33060;50.178;7.570;2022-08-18T00:19:39;96733.00;;;18.12;77.34
47330;BME280;33060;50.178;7.570;2022-08-18T00:22:19;96732.63;;;17.98;77.60
47330;BME280;33060;50.178;7.570;2022-08-18T00:24:49;96733.75;;;17.96;78.52
47330;BME280;33060;50.178;7.570;2022-08-18T00:27:20;96736.94;;;17.91;77.60
47330;BME280;33060;50.178;7.570;2022-08-18T00:29:55;96732.91;;;17.87;77.17
47330;BME280;33060;50.178;7.570;2022-08-18T00:32:28;96732.19;;;17.77;77.47
47330;BME280;33060;50.178;7.570;2022-08-18T00:34:55;96732.28;;;17.67;78.29
47330;BME280;33060;50.178;7.570;2022-08-18T00:37:22;96736.69;;;17.50;79.35
47330;BME280;33060;50.178;7.570;2022-08-18T00:39:51;96731.09;;;17.36;79.76
47330;BME280;33060;50.178;7.570;2022-08-18T00:42:25;96733.59;;;17.37;80.05
47330;BME280;33060;50.178;7.570;2022-08-18T00:44:59;96742.72;;;17.27;80.17
47330;BME280;33060;50.178;7.570;2022-08-18T00:47:27;96737.59;;;17.07;79.83
47330;BME280;33060;50.178;7.570;2022-08-18T00:50:20;96742.91;;;17.07;80.17
47330;BME280;33060;50.178;7.570;2022-08-18T00:52:54;96739.56;;;17.05;79.67
47330;BME280;33060;50.178;7.570;2022-08-18T00:55:23;96739.19;;;17.00;80.33
47330;BME280;33060;50.178;7.570;2022-08-18T00:57:54;96741.13;;;16.90;80.18
47330;BME280;33060;50.178;7.570;2022-08-18T01:00:21;96749.34;;;16.79;80.65
47330;BME280;33060;50.178;7.570;2022-08-18T01:02:55;96744.19;;;16.77;80.53
47330;BME280;33060;50.178;7.570;2022-08-18T01:05:40;96757.28;;;16.71;81.39
47330;BME280;33060;50.178;7.570;2022-08-18T01:08:12;96746.78;;;16.69;80.95
47330;BME280;33060;50.178;7.570;2022-08-18T01:10:54;96746.63;;;16.71;79.78
47330;BME280;33060;50.178;7.570;2022-08-18T01:13:26;96737.53;;;16.63;81.99
47330;BME280;33060;50.178;7.570;2022-08-18T01:15:53;96743.16;;;16.60;80.72
47330;BME280;33060;50.178;7.570;2022-08-18T01:18:20;96735.38;;;16.67;82.32
47330;BME280;33060;50.178;7.570;2022-08-18T01:21:13;96741.69;;;16.66;83.05
47330;BME280;33060;50.178;7.570;2022-08-18T01:24:03;96739.19;;;16.64;81.56
47330;BME280;33060;50.178;7.570;2022-08-18T01:26:37;96736.84;;;16.61;82.83
47330;BME280;33060;50.178;7.570;2022-08-18T01:29:11;96737.28;;;16.57;82.04
47330;BME280;33060;50.178;7.570;2022-08-18T01:31:50;96736.78;;;16.53;82.52
47330;BME280;33060;50.178;7.570;2022-08-18T01:34:24;96745.53;;;16.46;82.87
47330;BME280;33060;50.178;7.570;2022-08-18T01:36:51;96748.34;;;16.44;82.17
47330;BME280;33060;50.178;7.570;2022-08-18T01:39:21;96749.94;;;16.37;83.32
47330;BME280;33060;50.178;7.570;2022-08-18T01:42:08;96750.75;;;16.37;84.00
47330;BME280;33060;50.178;7.570;2022-08-18T01:44:35;96750.75;;;16.37;84.22
47330;BME280;33060;50.178;7.570;2022-08-18T01:47:02;96747.09;;;16.38;83.49
47330;BME280;33060;50.178;7.570;2022-08-18T01:49:28;96744.28;;;16.40;84.00
47330;BME280;33060;50.178;7.570;2022-08-18T01:51:55;96746.44;;;16.36;83.55
47330;BME280;33060;50.178;7.570;2022-08-18T01:54:22;96747.19;;;16.29;83.13
47330;BME280;33060;50.178;7.570;2022-08-18T01:56:48;96751.56;;;16.20;83.55
47330;BME280;33060;50.178;7.570;2022-08-18T01:59:15;96751.88;;;16.17;83.78
47330;BME280;33060;50.178;7.570;2022-08-18T02:01:44;96744.50;;;16.11;84.63
47330;BME280;33060;50.178;7.570;2022-08-18T02:04:27;96740.53;;;16.15;84.25
47330;BME280;33060;50.178;7.570;2022-08-18T02:07:07;96746.41;;;16.19;83.81
47330;BME280;33060;50.178;7.570;2022-08-18T02:09:37;96740.69;;;16.14;84.64
47330;BME280;33060;50.178;7.570;2022-08-18T02:12:05;96736.81;;;16.08;84.37
47330;BME280;33060;50.178;7.570;2022-08-18T02:14:34;96740.31;;;16.08;83.67
47330;BME280;33060;50.178;7.570;2022-08-18T02:17:03;96723.28;;;16.01;83.90
47330;BME280;33060;50.178;7.570;2022-08-18T02:19:42;96720.50;;;15.93;84.22
47330;BME280;33060;50.178;7.570;2022-08-18T02:22:12;96718.34;;;15.79;84.79
47330;BME280;33060;50.178;7.570;2022-08-18T02:24:39;96720.91;;;15.71;85.14
47330;BME280;33060;50.178;7.570;2022-08-18T02:27:07;96724.84;;;15.67;85.54
47330;BME280;33060;50.178;7.570;2022-08-18T02:29:35;96724.16;;;15.65;85.89
47330;BME280;33060;50.178;7.570;2022-08-18T02:32:02;96732.69;;;15.68;86.09
47330;BME280;33060;50.178;7.570;2022-08-18T02:34:29;96731.38;;;15.72;85.73
47330;BME280;33060;50.178;7.570;2022-08-18T02:36:58;96737.25;;;15.76;85.36
47330;BME280;33060;50.178;7.570;2022-08-18T02:39:26;96731.22;;;15.83;85.27
47330;BME280;33060;50.178;7.570;2022-08-18T02:41:53;96734.97;;;15.91;85.02
47330;BME280;33060;50.178;7.570;2022-08-18T02:44:19;96737.47;;;15.92;86.21
47330;BME280;33060;50.178;7.570;2022-08-18T02:46:51;96735.34;;;15.96;85.85
47330;BME280;33060;50.178;7.570;2022-08-18T02:49:18;96730.84;;;15.96;86.08
47330;BME280;33060;50.178;7.570;2022-08-18T02:51:44;96726.22;;;15.98;85.47
47330;BME280;33060;50.178;7.570;2022-08-18T02:54:11;96728.28;;;16.04;84.55
47330;BME280;33060;50.178;7.570;2022-08-18T02:56:38;96723.28;;;16.01;84.68
47330;BME280;33060;50.178;7.570;2022-08-18T02:59:22;96724.09;;;16.02;85.41
47330;BME280;33060;50.178;7.570;2022-08-18T03:01:54;96728.28;;;16.04;85.19
47330;BME280;33060;50.178;7.570;2022-08-18T03:04:25;96725.19;;;16.09;84.67
47330;BME280;33060;50.178;7.570;2022-08-18T03:06:57;96727.53;;;16.12;84.78
47330;BME280;33060;50.178;7.570;2022-08-18T03:09:25;96728.69;;;16.09;84.37
47330;BME280;33060;50.178;7.570;2022-08-18T03:11:52;96732.69;;;16.14;84.74
47330;BME280;33060;50.178;7.570;2022-08-18T03:14:20;96733.09;;;16.19;84.42
47330;BME280;33060;50.178;7.570;2022-08-18T03:16:47;96740.34;;;16.26;84.46
47330;BME280;33060;50.178;7.570;2022-08-18T03:19:24;96737.06;;;16.32;85.15
47330;BME280;33060;50.178;7.570;2022-08-18T03:21:51;96737.00;;;16.42;84.03
47330;BME280;33060;50.178;7.570;2022-08-18T03:24:18;96741.13;;;16.54;83.13
47330;BME280;33060;50.178;7.570;2022-08-18T03:26:50;96727.31;;;16.59;85.26
47330;BME280;33060;50.178;7.570;2022-08-18T03:29:17;96735.03;;;16.62;84.82
47330;BME280;33060;50.178;7.570;2022-08-18T03:31:44;96736.22;;;16.67;84.58
47330;BME280;33060;50.178;7.570;2022-08-18T03:34:11;96730.63;;;16.71;83.71
47330;BME280;33060;50.178;7.570;2022-08-18T03:36:38;96730.03;;;16.77;83.00
47330;BME280;33060;50.178;7.570;2022-08-18T03:39:08;96739.38;;;16.81;83.78
47330;BME280;33060;50.178;7.570;2022-08-18T03:41:37;96731.22;;;16.82;83.21
47330;BME280;33060;50.178;7.570;2022-08-18T03:44:25;96729.41;;;16.83;83.18
47330;BME280;33060;50.178;7.570;2022-08-18T03:46:53;96734.13;;;16.89;82.55
47330;BME280;33060;50.178;7.570;2022-08-18T03:49:19;96733.97;;;16.90;83.37
47330;BME280;33060;50.178;7.570;2022-08-18T03:51:46;96725.66;;;16.93;82.86
47330;BME280;33060;50.178;7.570;2022-08-18T03:54:16;96727.19;;;16.96;84.23
47330;BME280;33060;50.178;7.570;2022-08-18T03:56:45;96722.53;;;16.98;84.58
47330;BME280;33060;50.178;7.570;2022-08-18T03:59:17;96718.25;;;17.05;83.92
47330;BME280;33060;50.178;7.570;2022-08-18T04:01:46;96716.25;;;17.07;83.47
47330;BME280;33060;50.178;7.570;2022-08-18T04:04:16;96714.38;;;17.00;83.67
47330;BME280;33060;50.178;7.570;2022-08-18T04:06:51;96709.47;;;16.87;84.60
47330;BME280;33060;50.178;7.570;2022-08-18T04:09:22;96706.47;;;16.90;84.37
47330;BME280;33060;50.178;7.570;2022-08-18T04:11:50;96713.13;;;16.86;84.43
47330;BME280;33060;50.178;7.570;2022-08-18T04:14:20;96710.31;;;16.87;84.37
47330;BME280;33060;50.178;7.570;2022-08-18T04:16:49;96708.63;;;16.86;84.92
47330;BME280;33060;50.178;7.570;2022-08-18T04:19:17;96700.63;;;16.86;85.25
47330;BME280;33060;50.178;7.570;2022-08-18T04:21:56;96701.16;;;16.90;84.75
47330;BME280;33060;50.178;7.570;2022-08-18T04:24:25;96701.81;;;16.92;84.63
47330;BME280;33060;50.178;7.570;2022-08-18T04:26:57;96704.19;;;16.95;85.00
47330;BME280;33060;50.178;7.570;2022-08-18T04:29:25;96705.31;;;16.92;85.27
47330;BME280;33060;50.178;7.570;2022-08-18T04:31:52;96705.75;;;16.80;85.91
47330;BME280;33060;50.178;7.570;2022-08-18T04:34:19;96700.03;;;16.75;86.34
47330;BME280;33060;50.178;7.570;2022-08-18T04:36:46;96701.25;;;16.80;85.68
47330;BME280;33060;50.178;7.570;2022-08-18T04:39:14;96698.25;;;16.83;85.22
47330;BME280;33060;50.178;7.570;2022-08-18T04:41:42;96697.66;;;16.89;84.90
47330;BME280;33060;50.178;7.570;2022-08-18T04:44:11;96708.53;;;16.96;84.85
47330;BME280;33060;50.178;7.570;2022-08-18T04:46:44;96710.19;;;16.97;85.32
47330;BME280;33060;50.178;7.570;2022-08-18T04:49:14;96715.53;;;16.97;85.78
47330;BME280;33060;50.178;7.570;2022-08-18T04:51:46;96717.88;;;17.00;85.83
47330;BME280;33060;50.178;7.570;2022-08-18T04:54:53;96729.38;;;17.01;85.55
47330;BME280;33060;50.178;7.570;2022-08-18T04:57:20;96724.88;;;17.01;85.94
47330;BME280;33060;50.178;7.570;2022-08-18T04:59:49;96734.53;;;17.02;85.87
47330;BME280;33060;50.178;7.570;2022-08-18T05:02:19;96735.25;;;17.04;85.47
47330;BME280;33060;50.178;7.570;2022-08-18T05:04:47;96734.25;;;17.05;85.85
47330;BME280;33060;50.178;7.570;2022-08-18T05:07:16;96737.41;;;17.09;85.19
47330;BME280;33060;50.178;7.570;2022-08-18T05:09:44;96739.25;;;17.08;85.62
47330;BME280;33060;50.178;7.570;2022-08-18T05:12:13;96741.47;;;17.13;85.50
47330;BME280;33060;50.178;7.570;2022-08-18T05:14:41;96741.31;;;17.14;86.13
47330;BME280;33060;50.178;7.570;2022-08-18T05:17:11;96737.31;;;17.18;85.91
47330;BME280;33060;50.178;7.570;2022-08-18T05:19:38;96739.69;;;17.21;85.65
47330;BME280;33060;50.178;7.570;2022-08-18T05:22:09;96736.25;;;17.29;86.07
47330;BME280;33060;50.178;7.570;2022-08-18T05:24:37;96746.38;;;17.26;85.51
47330;BME280;33060;50.178;7.570;2022-08-18T05:27:05;96749.75;;;17.10;86.22
47330;BME280;33060;50.178;7.570;2022-08-18T05:29:33;96748.63;;;17.12;85.98
47330;BME280;33060;50.178;7.570;2022-08-18T05:32:11;96755.63;;;17.13;86.09
47330;BME280;33060;50.178;7.570;2022-08-18T05:35:02;96752.19;;;17.21;85.02
47330;BME280;33060;50.178;7.570;2022-08-18T05:37:38;96757.88;;;17.26;85.66
47330;BME280;33060;50.178;7.570;2022-08-18T05:40:09;96754.59;;;17.32;85.78
47330;BME280;33060;50.178;7.570;2022-08-18T05:42:38;96765.75;;;17.36;86.22
47330;BME280;33060;50.178;7.570;2022-08-18T05:45:10;96766.13;;;17.41;86.36
47330;BME280;33060;50.178;7.570;2022-08-18T05:47:38;96770.03;;;17.46;86.32
47330;BME280;33060;50.178;7.570;2022-08-18T05:50:08;96771.53;;;17.49;86.00
47330;BME280;33060;50.178;7.570;2022-08-18T05:55:22;96775.69;;;17.51;85.87
47330;BME280;33060;50.178;7.570;2022-08-18T05:58:22;96775.38;;;17.55;86.27
47330;BME280;33060;50.178;7.570;2022-08-18T06:01:21;96777.22;;;17.54;85.89
47330;BME280;33060;50.178;7.570;2022-08-18T06:03:53;96773.25;;;17.58;85.38
47330;BME280;33060;50.178;7.570;2022-08-18T06:06:25;96764.25;;;17.59;86.16
47330;BME280;33060;50.178;7.570;2022-08-18T06:09:16;96767.28;;;17.64;85.22
47330;BME280;33060;50.178;7.570;2022-08-18T06:11:45;96768.63;;;17.68;84.66
47330;BME280;33060;50.178;7.570;2022-08-18T06:14:12;96765.53;;;17.73;85.47
47330;BME280;33060;50.178;7.570;2022-08-18T06:22:17;96771.03;;;17.79;86.65
47330;BME280;33060;50.178;7.570;2022-08-18T06:24:57;96773.47;;;17.91;85.93
47330;BME280;33060;50.178;7.570;2022-08-18T06:30:42;96779.22;;;18.20;85.99
47330;BME280;33060;50.178;7.570;2022-08-18T06:33:26;96776.44;;;18.38;85.60
47330;BME280;33060;50.178;7.570;2022-08-18T06:36:33;96776.50;;;18.62;84.34
47330;BME280;33060;50.178;7.570;2022-08-18T06:39:23;96777.91;;;18.91;81.26
47330;BME280;33060;50.178;7.570;2022-08-18T06:41:52;96769.06;;;19.15;81.32
47330;BME280;33060;50.178;7.570;2022-08-18T06:44:40;96776.41;;;19.29;80.66
47330;BME280;33060;50.178;7.570;2022-08-18T06:47:18;96777.72;;;19.33;79.40
47330;BME280;33060;50.178;7.570;2022-08-18T06:49:58;96777.06;;;19.31;79.65
47330;BME280;33060;50.178;7.570;2022-08-18T06:52:31;96771.91;;;19.30;80.03
47330;BME280;33060;50.178;7.570;2022-08-18T06:55:13;96772.56;;;19.24;80.14
47330;BME280;33060;50.178;7.570;2022-08-18T06:57:56;96777.75;;;19.25;80.86
47330;BME280;33060;50.178;7.570;2022-08-18T07:00:29;96778.91;;;19.23;80.35
47330;BME280;33060;50.178;7.570;2022-08-18T07:05:30;96777.75;;;19.25;81.05
47330;BME280;33060;50.178;7.570;2022-08-18T07:08:13;96781.41;;;19.24;80.77
47330;BME280;33060;50.178;7.570;2022-08-18T07:10:50;96789.63;;;19.14;81.14
47330;BME280;33060;50.178;7.570;2022-08-18T07:13:26;96784.28;;;19.14;80.91
47330;BME280;33060;50.178;7.570;2022-08-18T07:15:55;96792.13;;;19.08;81.02
47330;BME280;33060;50.178;7.570;2022-08-18T07:18:43;96793.47;;;19.04;81.42
47330;BME280;33060;50.178;7.570;2022-08-18T07:21:23;96789.59;;;18.98;82.38
47330;BME280;33060;50.178;7.570;2022-08-18T07:23:58;96792.78;;;19.02;82.28
47330;BME280;33060;50.178;7.570;2022-08-18T07:27:17;96800.47;;;18.97;82.56
47330;BME280;33060;50.178;7.570;2022-08-18T07:30:35;96798.63;;;18.97;82.60
47330;BME280;33060;50.178;7.570;2022-08-18T07:33:01;96802.78;;;18.91;82.85
47330;BME280;33060;50.178;7.570;2022-08-18T07:35:40;96803.97;;;18.81;83.55
47330;BME280;33060;50.178;7.570;2022-08-18T07:38:13;96797.44;;;18.83;83.60
47330;BME280;33060;50.178;7.570;2022-08-18T07:46:44;96810.63;;;18.93;83.32
47330;BME280;33060;50.178;7.570;2022-08-18T07:49:09;96812.16;;;18.96;83.13
47330;BME280;33060;50.178;7.570;2022-08-18T07:51:52;96808.47;;;18.88;83.71
47330;BME280;33060;50.178;7.570;2022-08-18T07:57:23;96810.66;;;19.01;83.85
47330;BME280;33060;50.178;7.570;2022-08-18T08:03:19;96810.34;;;19.12;83.25
47330;BME280;33060;50.178;7.570;2022-08-18T08:09:54;96814.34;;;19.25;82.17
47330;BME280;33060;50.178;7.570;2022-08-18T08:18:48;96830.56;;;19.39;82.23
47330;BME280;33060;50.178;7.570;2022-08-18T08:21:19;96827.88;;;19.39;81.75
47330;BME280;33060;50.178;7.570;2022-08-18T08:24:01;96821.84;;;19.45;81.45
47330;BME280;33060;50.178;7.570;2022-08-18T08:27:04;96826.56;;;19.60;81.03
47330;BME280;33060;50.178;7.570;2022-08-18T08:32:15;96824.34;;;19.71;79.75
47330;BME280;33060;50.178;7.570;2022-08-18T08:35:07;96814.34;;;19.65;79.60
47330;BME280;33060;50.178;7.570;2022-08-18T08:38:05;96813.13;;;19.84;79.24
47330;BME280;33060;50.178;7.570;2022-08-18T08:41:00;96806.00;;;20.16;77.58
47330;BME280;33060;50.178;7.570;2022-08-18T08:43:32;96806.47;;;20.27;76.00
47330;BME280;33060;50.178;7.570;2022-08-18T08:46:12;96811.47;;;20.30;74.67
47330;BME280;33060;50.178;7.570;2022-08-18T08:48:59;96810.06;;;20.51;74.21
47330;BME280;33060;50.178;7.570;2022-08-18T08:54:05;96815.72;;;21.10;70.86
47330;BME280;33060;50.178;7.570;2022-08-18T08:56:38;96811.63;;;21.60;69.17
47330;BME280;33060;50.178;7.570;2022-08-18T08:59:09;96811.50;;;21.91;68.02
47330;BME280;33060;50.178;7.570;2022-08-18T09:07:19;96814.72;;;22.60;65.71
47330;BME280;33060;50.178;7.570;2022-08-18T09:10:12;96807.75;;;23.02;63.53
47330;BME280;33060;50.178;7.570;2022-08-18T09:21:43;96812.53;;;23.21;62.29
47330;BME280;33060;50.178;7.570;2022-08-18T09:29:55;96836.78;;;22.70;63.05
47330;BME280;33060;50.178;7.570;2022-08-18T09:38:07;96837.66;;;22.12;64.02
47330;BME280;33060;50.178;7.570;2022-08-18T09:40:57;96835.53;;;22.07;63.98
47330;BME280;33060;50.178;7.570;2022-08-18T09:43:55;96837.53;;;22.05;62.76
47330;BME280;33060;50.178;7.570;2022-08-18T09:52:45;96830.63;;;22.11;62.64
47330;BME280;33060;50.178;7.570;2022-08-18T10:13:37;96808.34;;;23.40;58.75
47330;BME280;33060;50.178;7.570;2022-08-18T10:19:51;96811.22;;;23.60;57.93
47330;BME280;33060;50.178;7.570;2022-08-18T10:22:39;96815.41;;;23.90;56.89
47330;BME280;33060;50.178;7.570;2022-08-18T10:25:09;96806.19;;;23.57;57.31
47330;BME280;33060;50.178;7.570;2022-08-18T10:27:52;96802.94;;;23.61;56.94
47330;BME280;33060;50.178;7.570;2022-08-18T10:33:04;96790.34;;;23.96;55.88
47330;BME280;33060;50.178;7.570;2022-08-18T10:35:59;96785.34;;;23.93;56.16
47330;BME280;33060;50.178;7.570;2022-08-18T10:38:41;96800.69;;;23.93;56.15
47330;BME280;33060;50.178;7.570;2022-08-18T10:41:21;96794.50;;;23.71;56.69
47330;BME280;33060;50.178;7.570;2022-08-18T10:43:50;96797.88;;;23.52;56.95
47330;BME280;33060;50.178;7.570;2022-08-18T10:46:25;96792.38;;;23.38;57.30
47330;BME280;33060;50.178;7.570;2022-08-18T10:49:14;96796.63;;;23.54;57.22
47330;BME280;33060;50.178;7.570;2022-08-18T10:54:50;96790.13;;;23.91;56.33
47330;BME280;33060;50.178;7.570;2022-08-18T10:59:59;96779.13;;;23.93;56.11
47330;BME280;33060;50.178;7.570;2022-08-18T11:03:13;96781.88;;;23.72;57.03
47330;BME280;33060;50.178;7.570;2022-08-18T11:06:07;96769.16;;;23.87;56.43
47330;BME280;33060;50.178;7.570;2022-08-18T11:08:58;96769.78;;;23.61;56.66
47330;BME280;33060;50.178;7.570;2022-08-18T11:11:43;96759.50;;;23.71;57.26
47330;BME280;33060;50.178;7.570;2022-08-18T11:20:22;96747.59;;;23.87;57.07
47330;BME280;33060;50.178;7.570;2022-08-18T11:22:56;96751.41;;;23.99;56.60
47330;BME280;33060;50.178;7.570;2022-08-18T11:25:34;96739.59;;;24.00;56.55
47330;BME280;33060;50.178;7.570;2022-08-18T11:28:02;96746.38;;;23.89;56.56
47330;BME280;33060;50.178;7.570;2022-08-18T11:30:46;96765.69;;;23.65;57.70
47330;BME280;33060;50.178;7.570;2022-08-18T11:33:16;96769.88;;;23.46;58.13
47330;BME280;33060;50.178;7.570;2022-08-18T11:35:54;96796.88;;;23.10;59.05
47330;BME280;33060;50.178;7.570;2022-08-18T11:38:27;96831.59;;;22.54;60.84
47330;BME280;33060;50.178;7.570;2022-08-18T11:41:16;96828.13;;;22.09;62.84
47330;BME280;33060;50.178;7.570;2022-08-18T11:43:45;96816.88;;;21.91;63.82
47330;BME280;33060;50.178;7.570;2022-08-18T11:48:53;96791.47;;;22.52;61.40
47330;BME280;33060;50.178;7.570;2022-08-18T11:51:23;96763.41;;;23.19;59.14
47330;BME280;33060;50.178;7.570;2022-08-18T11:54:03;96733.84;;;24.64;55.16
47330;BME280;33060;50.178;7.570;2022-08-18T11:56:44;96732.22;;;24.70;53.99
47330;BME280;33060;50.178;7.570;2022-08-18T12:02:19;96781.97;;;23.57;57.55
47330;BME280;33060;50.178;7.570;2022-08-18T12:04:52;96785.09;;;23.32;58.47
47330;BME280;33060;50.178;7.570;2022-08-18T12:07:35;96781.84;;;23.44;58.05
47330;BME280;33060;50.178;7.570;2022-08-18T12:12:52;96768.50;;;23.57;57.69
47330;BME280;33060;50.178;7.570;2022-08-18T12:15:31;96753.03;;;23.93;56.75
47330;BME280;33060;50.178;7.570;2022-08-18T12:18:15;96750.50;;;24.27;55.59
47330;BME280;33060;50.178;7.570;2022-08-18T12:21:03;96752.38;;;24.87;54.03
47330;BME280;33060;50.178;7.570;2022-08-18T12:23:32;96757.69;;;24.13;55.95
47330;BME280;33060;50.178;7.570;2022-08-18T12:26:14;96750.88;;;24.23;55.42
47330;BME280;33060;50.178;7.570;2022-08-18T12:29:00;96743.53;;;24.04;56.43
47330;BME280;33060;50.178;7.570;2022-08-18T12:31:28;96742.47;;;24.40;55.39
47330;BME280;33060;50.178;7.570;2022-08-18T12:34:13;96753.38;;;24.18;55.56
47330;BME280;33060;50.178;7.570;2022-08-18T12:36:41;96766.25;;;23.88;55.98
47330;BME280;33060;50.178;7.570;2022-08-18T12:39:09;96755.53;;;24.36;55.00
47330;BME280;33060;50.178;7.570;2022-08-18T12:41:36;96744.13;;;25.08;53.33
47330;BME280;33060;50.178;7.570;2022-08-18T12:44:03;96736.84;;;25.62;51.71
47330;BME280;33060;50.178;7.570;2022-08-18T12:46:38;96733.97;;;25.37;51.68
47330;BME280;33060;50.178;7.570;2022-08-18T12:49:34;96742.91;;;25.11;50.85
47330;BME280;33060;50.178;7.570;2022-08-18T12:52:03;96745.16;;;25.07;50.96
47330;BME280;33060;50.178;7.570;2022-08-18T12:54:30;96736.97;;;24.74;52.11
47330;BME280;33060;50.178;7.570;2022-08-18T12:56:59;96737.59;;;24.63;52.94
47330;BME280;33060;50.178;7.570;2022-08-18T12:59:27;96730.38;;;24.97;52.20
47330;BME280;33060;50.178;7.570;2022-08-18T13:02:03;96724.13;;;24.83;52.57
47330;BME280;33060;50.178;7.570;2022-08-18T13:04:29;96723.00;;;24.44;52.33
47330;BME280;33060;50.178;7.570;2022-08-18T13:06:58;96717.06;;;24.75;52.24
47330;BME280;33060;50.178;7.570;2022-08-18T13:09:31;96718.56;;;24.98;50.83
47330;BME280;33060;50.178;7.570;2022-08-18T13:12:14;96722.75;;;25.47;49.25
47330;BME280;33060;50.178;7.570;2022-08-18T13:14:42;96716.91;;;25.63;49.19
47330;BME280;33060;50.178;7.570;2022-08-18T13:17:11;96725.25;;;25.48;49.46
47330;BME280;33060;50.178;7.570;2022-08-18T13:19:58;96733.34;;;25.22;49.69
47330;BME280;33060;50.178;7.570;2022-08-18T13:22:26;96738.31;;;25.05;50.39
47330;BME280;33060;50.178;7.570;2022-08-18T13:25:02;96728.28;;;24.92;50.91
47330;BME280;33060;50.178;7.570;2022-08-18T13:27:31;96733.25;;;24.69;51.35
47330;BME280;33060;50.178;7.570;2022-08-18T13:30:03;96740.34;;;24.96;51.44
47330;BME280;33060;50.178;7.570;2022-08-18T13:32:51;96745.09;;;24.81;51.21
47330;BME280;33060;50.178;7.570;2022-08-18T13:35:28;96750.84;;;24.58;51.75
47330;BME280;33060;50.178;7.570;2022-08-18T13:38:14;96746.88;;;24.47;50.53
47330;BME280;33060;50.178;7.570;2022-08-18T13:40:53;96746.66;;;24.49;51.32
47330;BME280;33060;50.178;7.570;2022-08-18T13:43:29;96753.47;;;24.38;51.58
47330;BME280;33060;50.178;7.570;2022-08-18T13:45:57;96741.47;;;24.47;51.83
47330;BME280;33060;50.178;7.570;2022-08-18T13:48:26;96733.50;;;25.00;51.07
47330;BME280;33060;50.178;7.570;2022-08-18T13:50:55;96715.66;;;25.65;50.36
47330;BME280;33060;50.178;7.570;2022-08-18T13:53:27;96715.38;;;26.07;48.71
47330;BME280;33060;50.178;7.570;2022-08-18T13:55:57;96721.88;;;25.66;48.89
47330;BME280;33060;50.178;7.570;2022-08-18T13:58:25;96714.41;;;25.61;49.75
47330;BME280;33060;50.178;7.570;2022-08-18T14:00:57;96711.69;;;25.02;50.47
47330;BME280;33060;50.178;7.570;2022-08-18T14:03:44;96724.34;;;25.01;51.17
47330;BME280;33060;50.178;7.570;2022-08-18T14:06:13;96724.34;;;24.88;50.88
47330;BME280;33060;50.178;7.570;2022-08-18T14:08:47;96721.25;;;24.91;50.80
47330;BME280;33060;50.178;7.570;2022-08-18T14:11:15;96722.03;;;24.59;51.37
47330;BME280;33060;50.178;7.570;2022-08-18T14:13:42;96714.19;;;24.77;51.23
47330;BME280;33060;50.178;7.570;2022-08-18T14:16:10;96714.94;;;24.58;51.83
47330;BME280;33060;50.178;7.570;2022-08-18T14:18:45;96718.38;;;24.25;52.49
47330;BME280;33060;50.178;7.570;2022-08-18T14:21:40;96718.91;;;24.14;52.84
47330;BME280;33060;50.178;7.570;2022-08-18T14:24:26;96709.53;;;24.44;52.78
47330;BME280;33060;50.178;7.570;2022-08-18T14:27:33;96702.72;;;24.62;52.22
47330;BME280;33060;50.178;7.570;2022-08-18T14:30:11;96705.63;;;24.60;52.71
47330;BME280;33060;50.178;7.570;2022-08-18T14:32:39;96707.25;;;24.41;52.58
47330;BME280;33060;50.178;7.570;2022-08-18T14:35:14;96701.41;;;24.38;52.47
47330;BME280;33060;50.178;7.570;2022-08-18T14:38:02;96710.00;;;24.07;53.30
47330;BME280;33060;50.178;7.570;2022-08-18T14:40:31;96705.47;;;23.79;54.06
47330;BME280;33060;50.178;7.570;2022-08-18T14:42:59;96708.50;;;23.63;54.86
47330;BME280;33060;50.178;7.570;2022-08-18T14:45:31;96717.50;;;23.49;54.81
47330;BME280;33060;50.178;7.570;2022-08-18T14:48:04;96720.41;;;23.54;55.09
47330;BME280;33060;50.178;7.570;2022-08-18T14:50:37;96723.28;;;23.74;54.60
47330;BME280;33060;50.178;7.570;2022-08-18T14:53:05;96723.31;;;23.80;53.76
47330;BME280;33060;50.178;7.570;2022-08-18T14:55:32;96721.84;;;23.78;53.46
47330;BME280;33060;50.178;7.570;2022-08-18T14:57:59;96722.56;;;23.93;53.07
47330;BME280;33060;50.178;7.570;2022-08-18T15:00:27;96708.38;;;24.19;52.53
47330;BME280;33060;50.178;7.570;2022-08-18T15:02:54;96721.41;;;23.74;53.42
47330;BME280;33060;50.178;7.570;2022-08-18T15:05:25;96709.22;;;23.78;53.54
47330;BME280;33060;50.178;7.570;2022-08-18T15:08:00;96708.66;;;23.89;53.60
47330;BME280;33060;50.178;7.570;2022-08-18T15:10:29;96713.19;;;23.89;53.37
47330;BME280;33060;50.178;7.570;2022-08-18T15:12:58;96710.22;;;24.12;52.70
47330;BME280;33060;50.178;7.570;2022-08-18T15:15:26;96696.72;;;24.12;52.70
47330;BME280;33060;50.178;7.570;2022-08-18T15:18:14;96703.41;;;24.16;51.81
47330;BME280;33060;50.178;7.570;2022-08-18T15:20:49;96723.72;;;24.18;51.84
47330;BME280;33060;50.178;7.570;2022-08-18T15:23:45;96695.81;;;24.33;51.31
47330;BME280;33060;50.178;7.570;2022-08-18T15:26:40;96704.25;;;24.30;51.21
47330;BME280;33060;50.178;7.570;2022-08-18T15:29:09;96706.94;;;24.23;51.18
47330;BME280;33060;50.178;7.570;2022-08-18T15:31:40;96705.66;;;24.12;51.88
47330;BME280;33060;50.178;7.570;2022-08-18T15:34:27;96704.69;;;24.27;51.69
47330;BME280;33060;50.178;7.570;2022-08-18T15:36:54;96702.66;;;24.35;51.94
47330;BME280;33060;50.178;7.570;2022-08-18T15:39:23;96703.69;;;24.41;51.77
47330;BME280;33060;50.178;7.570;2022-08-18T15:41:54;96710.03;;;24.20;51.97